Cedar, KS (67628)

2:52 AM CST on November 23, 2014 (GMT -0600)
RAWS KIRWIN KS US | Change Station
CLOSE
Current Station
Personal Weather Station
Location: Kirwin, KS
Elevation: 1747 ft
Nearby Weather Stations

Elev 1747 ft 39.67 °N, 99.20 °W | Updated 56 minutes ago

Overcast
Overcast
53 °F
Feels Like 53 °F
N
2
Wind Variable Wind from SSW
Gusts 10.0 mph

Today
High -- | Low -- °F
--% Chance of Precip.
Yesterday
High -- | Low -- °F
Precip. -- in
7:29 AM 5:14 PM
New Moon, 1% visible
Pressure 29.44 in
Visibility 10.0 miles
Clouds Overcast 1700 ft
Dew Point 48 °F
Humidity 82%
Rainfall 0.00 in
Snow Depth Not available.
UV 0 out of 12
Pollen .10 out of 12
Air Quality Not available.
Flu Activity Not available.
METAR KHLC 230753Z AUTO 00000KT 10SM OVC017 11/08 A2947 RMK AO2 SLP968 T01060083

More Conditions Fewer Conditions

Pressure 29.44 in
Visibility 10.0 miles
Clouds Overcast 1700 ft
Dew Point 48 °F
Humidity 82%
Rainfall 0.00 in
Snow Depth Not available.
UV 0 out of 12
Pollen .10 out of 12
Air Quality Not available.
Flu Activity Not available.
METAR KHLC 230753Z AUTO 00000KT 10SM OVC017 11/08 A2947 RMK AO2 SLP968 T01060083

More Conditions Fewer Conditions

10-Day Weather Forecast

Almanac

Astronomy

Nov. 23, 2014 Rise Set
Actual Time
Civil Twilight
Nautical Twilight
Astronomical Twilight
Moon
Length of Visible Light
Length of Day
Tomorrow will be .
, % of the Moon is Illuminated

Today's Extremes

State Highs State Lows

Community

WunderPhotos

Upload Photos

1,773,024 photos uploaded!

WunderBlogs® & News

Nearby

Air Quality

  Air Quality AQ Index Pollutant
Not available.

Snow Depth

Station Depth Elevation

Earthquake Activity

City Distance Mag. Time & Date
Minimum magnitude displayed is 2.5.

Coastal Water Temperatures

Place Temperature

Nearby Weather Stations